Time;durP1;ratioP1;P1;durP2;ratioP2;P2;SDS_P1;SDS_P2;PMS_P1;PMS_P2;Temp;Humidity;BMP_temperature;BMP_pressure;BME280_temperature;BME280_humidity;BME280_pressure;Samples;Min_cycle;Max_cycle;Signal;HPM_P1;HPM_P2
2022/06/27 00:00:19;;;;;;;8.82;5.55;;;;;;;15.58;100.00;100683.06;687303;28;1219;-46
2022/06/27 00:00:39;;;;;;;7.63;5.17;;;;;;;15.58;100.00;100675.19;687483;28;1349;-46
2022/06/27 00:00:59;;;;;;;8.30;5.50;;;;;;;15.60;100.00;100680.41;686944;28;1345;-46
2022/06/27 00:01:20;;;;;;;8.07;5.80;;;;;;;15.60;100.00;100677.75;689407;28;1198;-46
2022/06/27 00:01:40;;;;;;;8.02;5.53;;;;;;;15.60;100.00;100678.66;684222;28;4286;-45
2022/06/27 00:02:01;;;;;;;7.53;5.33;;;;;;;15.61;100.00;100679.50;687095;28;1314;-46
2022/06/27 00:02:21;;;;;;;7.30;5.20;;;;;;;15.61;100.00;100685.63;685371;28;2252;-46
2022/06/27 00:02:42;;;;;;;7.17;5.37;;;;;;;15.61;100.00;100683.00;685729;28;1289;-46
2022/06/27 00:03:02;;;;;;;7.50;5.40;;;;;;;15.59;100.00;100686.56;686137;28;1306;-47
2022/06/27 00:03:22;;;;;;;7.43;5.57;;;;;;;15.55;100.00;100685.81;684671;28;1322;-46
2022/06/27 00:03:43;;;;;;;7.80;5.80;;;;;;;15.52;100.00;100685.88;690659;28;1178;-46
2022/06/27 00:04:03;;;;;;;8.07;5.70;;;;;;;15.52;100.00;100682.38;690284;28;1079;-46
2022/06/27 00:04:24;;;;;;;7.40;5.57;;;;;;;15.54;100.00;100683.22;690168;28;1063;-45
2022/06/27 00:04:44;;;;;;;7.37;5.70;;;;;;;15.54;100.00;100681.44;689690;28;4349;-45
2022/06/27 00:05:05;;;;;;;8.00;5.53;;;;;;;15.55;100.00;100688.44;692879;28;1337;-45
2022/06/27 00:05:26;;;;;;;7.72;5.35;;;;;;;15.53;100.00;100684.94;692321;28;1902;-47
2022/06/27 00:05:46;;;;;;;7.90;5.43;;;;;;;15.53;100.00;100684.09;692556;28;1341;-46
2022/06/27 00:06:07;;;;;;;7.30;5.40;;;;;;;15.53;100.00;100690.22;692649;28;1328;-47
2022/06/27 00:06:27;;;;;;;7.70;5.47;;;;;;;15.55;100.00;100682.28;692348;28;1656;-46
2022/06/27 00:06:47;;;;;;;8.13;5.67;;;;;;;15.55;100.00;100682.28;692687;28;1048;-46
2022/06/27 00:07:08;;;;;;;7.47;5.55;;;;;;;15.56;100.00;100686.66;689676;28;1233;-45
2022/06/27 00:07:28;;;;;;;7.50;5.43;;;;;;;15.55;100.00;100688.44;690555;28;1484;-47
2022/06/27 00:07:48;;;;;;;7.90;5.70;;;;;;;15.56;100.00;100679.63;689586;28;4248;-46
2022/06/27 00:08:09;;;;;;;9.23;5.65;;;;;;;15.58;100.00;100687.50;689274;28;1324;-46
2022/06/27 00:08:29;;;;;;;8.20;5.67;;;;;;;15.56;100.00;100684.91;689915;28;1511;-45
2022/06/27 00:08:50;;;;;;;8.02;5.55;;;;;;;15.56;100.00;100687.53;690293;28;1487;-46
2022/06/27 00:09:10;;;;;;;8.15;5.28;;;;;;;15.55;100.00;100692.81;690232;28;1518;-46
2022/06/27 00:09:31;;;;;;;7.80;5.43;;;;;;;15.54;100.00;100691.09;689704;28;1099;-45
2022/06/27 00:09:51;;;;;;;7.77;5.77;;;;;;;15.54;100.00;100691.97;689958;28;1226;-46
2022/06/27 00:10:12;;;;;;;8.32;5.45;;;;;;;15.55;100.00;100698.97;691523;28;1258;-48
2022/06/27 00:10:32;;;;;;;6.67;5.10;;;;;;;15.53;100.00;100689.38;684141;28;4529;-47
2022/06/27 00:10:53;;;;;;;6.35;4.90;;;;;;;15.52;100.00;100699.06;692611;28;1185;-46
2022/06/27 00:11:14;;;;;;;6.72;5.45;;;;;;;15.53;100.00;100695.50;692674;28;1219;-46
2022/06/27 00:11:35;;;;;;;6.82;5.30;;;;;;;15.53;100.00;100692.84;693069;28;1214;-48
2022/06/27 00:11:56;;;;;;;6.32;5.13;;;;;;;15.53;100.00;100692.84;688831;28;1223;-46
2022/06/27 00:12:16;;;;;;;6.97;5.15;;;;;;;15.53;100.00;100695.50;688755;28;1286;-46
2022/06/27 00:12:38;;;;;;;7.07;5.20;;;;;;;15.52;100.00;100688.53;690497;28;1334;-46
2022/06/27 00:12:58;;;;;;;6.68;5.38;;;;;;;15.52;100.00;100693.78;690362;28;1424;-45
2022/06/27 00:13:19;;;;;;;6.43;5.10;;;;;;;15.53;100.00;100697.28;690179;28;1226;-48
2022/06/27 00:13:39;;;;;;;7.63;5.32;;;;;;;15.50;100.00;100696.44;689182;28;4498;-46
2022/06/27 00:14:00;;;;;;;7.80;5.43;;;;;;;15.51;100.00;100689.41;689776;28;1201;-46
2022/06/27 00:14:20;;;;;;;7.07;5.32;;;;;;;15.52;100.00;100693.78;689764;28;1322;-45
2022/06/27 00:14:41;;;;;;;7.43;4.90;;;;;;;15.54;100.00;100691.97;690455;28;1265;-46
2022/06/27 00:15:01;;;;;;;10.95;4.85;;;;;;;15.53;100.00;100698.13;690249;28;1416;-45
2022/06/27 00:15:22;;;;;;;6.97;4.70;;;;;;;15.52;100.00;100688.53;689523;28;1134;-46
2022/06/27 00:15:42;;;;;;;7.15;4.82;;;;;;;15.51;100.00;100692.03;690971;28;1509;-45
2022/06/27 00:16:03;;;;;;;6.97;5.10;;;;;;;15.51;100.00;100699.94;689724;28;1403;-46
2022/06/27 00:16:23;;;;;;;7.60;5.47;;;;;;;15.51;100.00;100697.31;689888;28;1341;-45
2022/06/27 00:16:44;;;;;;;7.20;5.30;;;;;;;15.50;100.00;100699.06;692721;28;4564;-46
2022/06/27 00:17:04;;;;;;;6.27;5.30;;;;;;;15.52;100.00;100698.16;692101;28;1419;-46
2022/06/27 00:17:27;;;;;;;7.70;5.55;;;;;;;15.53;100.00;100702.53;692088;28;1313;-46
2022/06/27 00:17:47;;;;;;;8.55;5.60;;;;;;;15.54;100.00;100699.00;690575;28;1095;-46
2022/06/27 00:18:08;;;;;;;7.30;5.55;;;;;;;15.54;100.00;100697.22;689655;28;1488;-46
2022/06/27 00:18:28;;;;;;;8.10;5.60;;;;;;;15.56;100.00;100705.09;689454;28;1373;-46
2022/06/27 00:18:49;;;;;;;7.30;5.40;;;;;;;15.54;100.00;100697.22;690256;28;1547;-46
2022/06/27 00:19:09;;;;;;;6.77;5.20;;;;;;;15.55;100.00;100698.97;688935;28;1364;-46
2022/06/27 00:19:30;;;;;;;7.60;5.57;;;;;;;15.55;100.00;100701.59;689631;28;4569;-45
2022/06/27 00:19:50;;;;;;;7.90;5.30;;;;;;;15.56;100.00;100699.81;689849;28;1326;-45
2022/06/27 00:20:11;;;;;;;7.60;5.20;;;;;;;15.57;100.00;100702.41;689605;28;3375;-45
2022/06/27 00:20:31;;;;;;;7.32;5.40;;;;;;;15.57;100.00;100710.31;688826;28;1473;-46
2022/06/27 00:20:53;;;;;;;7.17;5.50;;;;;;;15.57;100.00;100707.69;690495;28;1249;-47
2022/06/27 00:21:13;;;;;;;7.18;5.47;;;;;;;15.55;100.00;100709.50;689807;28;1278;-47
2022/06/27 00:21:34;;;;;;;7.80;5.47;;;;;;;15.55;100.00;100709.50;687724;28;1239;-46
2022/06/27 00:21:55;;;;;;;7.10;5.20;;;;;;;15.55;100.00;100714.78;690057;28;1203;-47
2022/06/27 00:22:15;;;;;;;8.25;5.20;;;;;;;15.54;100.00;100713.03;690013;28;1336;-46
2022/06/27 00:22:37;;;;;;;7.70;5.00;;;;;;;15.55;100.00;100708.63;689900;28;4311;-46
2022/06/27 00:22:58;;;;;;;8.15;5.18;;;;;;;15.53;100.00;100711.31;689684;28;1421;-46
2022/06/27 00:23:18;;;;;;;7.90;5.38;;;;;;;15.53;100.00;100716.56;689696;28;1704;-46
2022/06/27 00:23:38;;;;;;;6.87;5.10;;;;;;;15.53;100.00;100708.66;693501;28;1242;-46
2022/06/27 00:23:59;;;;;;;7.32;5.22;;;;;;;15.54;100.00;100706.91;692576;28;1354;-46
2022/06/27 00:24:19;;;;;;;7.63;5.10;;;;;;;15.55;100.00;100708.63;691627;28;1360;-47
2022/06/27 00:24:40;;;;;;;6.50;5.03;;;;;;;15.55;100.00;100711.25;693306;28;1328;-47
2022/06/27 00:25:00;;;;;;;7.22;5.18;;;;;;;15.54;100.00;100714.81;693097;28;1341;-46
2022/06/27 00:25:21;;;;;;;7.32;5.15;;;;;;;15.55;100.00;100713.91;692078;28;1910;-45
2022/06/27 00:25:41;;;;;;;6.90;5.53;;;;;;;15.54;100.00;100707.78;692121;28;4340;-46
2022/06/27 00:26:02;;;;;;;7.45;5.60;;;;;;;15.55;100.00;100717.41;692169;28;1507;-46
2022/06/27 00:26:22;;;;;;;7.40;5.20;;;;;;;15.55;100.00;100703.34;688932;28;1194;-46
2022/06/27 00:26:42;;;;;;;7.82;5.43;;;;;;;15.54;100.00;100706.91;689500;28;1373;-46
2022/06/27 00:27:03;;;;;;;7.23;5.40;;;;;;;15.54;100.00;100709.56;686460;28;1338;-46
2022/06/27 00:27:23;;;;;;;6.80;5.40;;;;;;;15.53;100.00;100707.81;687067;28;1400;-46
2022/06/27 00:27:44;;;;;;;7.30;5.43;;;;;;;15.52;100.00;100706.97;687236;28;1401;-46
2022/06/27 00:28:04;;;;;;;6.83;5.23;;;;;;;15.52;100.00;100706.97;686935;28;1386;-45
2022/06/27 00:28:25;;;;;;;8.25;5.82;;;;;;;15.52;100.00;100704.31;686614;28;1282;-48
2022/06/27 00:28:46;;;;;;;7.82;5.88;;;;;;;15.51;100.00;100710.50;684646;28;4469;-48
2022/06/27 00:29:06;;;;;;;8.70;5.57;;;;;;;15.49;100.00;100707.00;687317;28;1242;-49
2022/06/27 00:29:27;;;;;;;8.33;5.30;;;;;;;15.49;100.00;100704.38;687199;28;1337;-46
2022/06/27 00:29:47;;;;;;;6.50;5.53;;;;;;;15.48;100.00;100705.31;687153;28;1409;-45
2022/06/27 00:30:08;;;;;;;6.30;5.33;;;;;;;15.48;100.00;100698.25;689688;28;1430;-46
2022/06/27 00:30:29;;;;;;;6.72;5.38;;;;;;;15.48;100.00;100698.25;689733;28;1513;-47
2022/06/27 00:30:49;;;;;;;7.15;5.80;;;;;;;15.48;100.00;100697.41;689788;28;1763;-47
2022/06/27 00:31:09;;;;;;;6.83;5.67;;;;;;;15.48;100.00;100700.03;690155;28;1579;-46
2022/06/27 00:31:30;;;;;;;7.30;5.55;;;;;;;15.47;100.00;100700.94;690032;28;4521;-46
2022/06/27 00:31:51;;;;;;;7.93;5.70;;;;;;;15.48;100.00;100700.03;690291;28;1641;-46
2022/06/27 00:32:11;;;;;;;7.32;5.28;;;;;;;15.49;100.00;100701.75;690168;28;1154;-48
2022/06/27 00:32:31;;;;;;;7.97;5.33;;;;;;;15.49;100.00;100700.00;688930;28;1146;-46
2022/06/27 00:32:52;;;;;;;7.88;5.20;;;;;;;15.49;100.00;100699.09;689566;28;1257;-46
2022/06/27 00:33:13;;;;;;;7.20;5.20;;;;;;;15.51;100.00;100705.22;688729;28;1245;-46
2022/06/27 00:33:33;;;;;;;6.83;5.40;;;;;;;15.51;100.00;100699.94;690374;28;1170;-46
2022/06/27 00:33:54;;;;;;;6.90;5.30;;;;;;;15.50;100.00;100700.84;692377;28;1238;-47
2022/06/27 00:34:14;;;;;;;6.57;5.40;;;;;;;15.51;100.00;100705.22;692611;28;1312;-46
2022/06/27 00:34:35;;;;;;;6.50;5.30;;;;;;;15.52;100.00;100703.44;691543;28;4548;-48
2022/06/27 00:34:55;;;;;;;8.17;5.63;;;;;;;15.54;100.00;100701.66;692627;28;1178;-47
2022/06/27 00:35:16;;;;;;;9.93;5.65;;;;;;;15.54;100.00;100701.66;691922;28;1170;-45
2022/06/27 00:35:36;;;;;;;10.40;6.30;;;;;;;15.54;100.00;100707.78;693120;28;1284;-47
2022/06/27 00:35:56;;;;;;;6.85;5.40;;;;;;;15.55;100.00;100703.34;689811;28;1241;-46
2022/06/27 00:36:18;;;;;;;6.82;5.47;;;;;;;15.55;100.00;100698.97;689031;28;1250;-47
2022/06/27 00:36:38;;;;;;;6.50;5.35;;;;;;;15.56;100.00;100705.09;690554;28;1337;-45
2022/06/27 00:37:00;;;;;;;6.40;5.73;;;;;;;15.55;100.00;100704.25;687021;28;1333;-46
2022/06/27 00:37:20;;;;;;;6.75;5.18;;;;;;;15.56;100.00;100700.72;686857;28;1195;-50
2022/06/27 00:37:41;;;;;;;6.97;5.10;;;;;;;15.56;100.00;100705.97;687075;28;4298;-46
2022/06/27 00:38:01;;;;;;;6.50;5.10;;;;;;;15.57;100.00;100707.69;687168;28;1302;-47
2022/06/27 00:38:22;;;;;;;6.33;5.00;;;;;;;15.56;100.00;100708.63;684970;28;1523;-46
2022/06/27 00:38:42;;;;;;;6.40;5.03;;;;;;;15.56;100.00;100713.88;684373;28;1394;-47
2022/06/27 00:39:02;;;;;;;6.57;5.28;;;;;;;15.57;100.00;100709.47;681520;28;1494;-46
2022/06/27 00:39:23;;;;;;;6.77;5.27;;;;;;;15.57;100.00;100706.84;684480;28;1348;-46
2022/06/27 00:39:43;;;;;;;6.60;5.13;;;;;;;15.55;100.00;100706.00;687287;28;1392;-46
2022/06/27 00:40:06;;;;;;;6.30;5.10;;;;;;;15.54;100.00;100705.13;683670;28;1679;-48
2022/06/27 00:40:27;;;;;;;7.07;5.45;;;;;;;15.53;100.00;100706.03;687638;28;1412;-46
2022/06/27 00:40:47;;;;;;;6.82;5.35;;;;;;;15.50;100.00;100699.06;686869;28;4585;-46
2022/06/27 00:41:08;;;;;;;6.17;5.23;;;;;;;15.51;100.00;100699.94;686128;28;1342;-48
2022/06/27 00:41:28;;;;;;;6.20;5.00;;;;;;;15.52;100.00;100693.78;689258;28;1527;-46
2022/06/27 00:41:49;;;;;;;6.30;5.05;;;;;;;15.51;100.00;100697.31;691169;28;1326;-47
2022/06/27 00:42:09;;;;;;;5.53;4.80;;;;;;;15.53;100.00;100694.63;691276;28;1432;-46
2022/06/27 00:42:29;;;;;;;6.20;4.60;;;;;;;15.53;100.00;100695.50;692373;28;4550;-46
2022/06/27 00:42:50;;;;;;;5.95;4.60;;;;;;;15.54;100.00;100694.59;690393;28;1528;-46
2022/06/27 00:43:11;;;;;;;6.30;5.00;;;;;;;15.55;100.00;100703.34;689335;28;2208;-46
2022/06/27 00:43:31;;;;;;;6.40;5.13;;;;;;;15.54;100.00;100702.50;689349;28;4400;-46
2022/06/27 00:43:51;;;;;;;6.70;5.20;;;;;;;15.56;100.00;100702.47;689536;28;1306;-46
2022/06/27 00:44:35;;;;;;;6.13;5.10;;;;;;;15.54;100.00;100702.50;690069;28;1607;-46
2022/06/27 00:44:55;;;;;;;6.65;5.32;;;;;;;15.53;100.00;100707.81;690230;28;1119;-46
2022/06/27 00:45:16;;;;;;;7.97;5.33;;;;;;;15.53;100.00;100705.19;689294;28;1237;-45
2022/06/27 00:45:36;;;;;;;6.40;5.07;;;;;;;15.52;100.00;100704.31;690492;28;1910;-46
2022/06/27 00:45:56;;;;;;;7.00;5.35;;;;;;;15.52;100.00;100711.34;689996;28;1190;-46
2022/06/27 00:46:17;;;;;;;6.33;5.13;;;;;;;15.50;100.00;100706.97;692003;28;1363;-47
2022/06/27 00:46:38;;;;;;;7.45;5.25;;;;;;;15.50;100.00;100711.38;692991;28;4594;-46
2022/06/27 00:46:58;;;;;;;7.70;5.17;;;;;;;15.49;100.00;100709.66;690305;28;1385;-47
2022/06/27 00:47:20;;;;;;;6.85;5.05;;;;;;;15.49;100.00;100705.25;686670;28;1232;-46
2022/06/27 00:47:41;;;;;;;6.22;5.25;;;;;;;15.48;100.00;100702.66;687238;28;1143;-46
2022/06/27 00:48:01;;;;;;;6.00;5.27;;;;;;;15.49;100.00;100704.38;684041;28;1607;-46
2022/06/27 00:48:21;;;;;;;5.77;4.90;;;;;;;15.50;100.00;100703.47;684220;28;1347;-46
2022/06/27 00:48:42;;;;;;;5.97;5.07;;;;;;;15.50;100.00;100700.84;685013;28;1362;-47
2022/06/27 00:49:03;;;;;;;8.20;5.10;;;;;;;15.50;100.00;100706.13;684486;28;1365;-46
2022/06/27 00:49:23;;;;;;;8.88;5.20;;;;;;;15.50;100.00;100695.56;684291;28;1361;-45
2022/06/27 00:49:44;;;;;;;6.93;5.03;;;;;;;15.48;100.00;100690.34;684050;28;4717;-47
2022/06/27 00:50:06;;;;;;;6.28;4.88;;;;;;;15.48;100.00;100698.25;684050;28;1429;-46
2022/06/27 00:50:26;;;;;;;6.40;5.00;;;;;;;15.48;100.00;100689.50;678935;29;1974;-46
2022/06/27 00:50:47;;;;;;;6.80;5.10;;;;;;;15.46;100.00;100684.25;679736;28;1379;-46
2022/06/27 00:51:09;;;;;;;6.05;4.90;;;;;;;15.47;100.00;100687.75;682768;28;1358;-46
2022/06/27 00:51:29;;;;;;;6.00;4.88;;;;;;;15.47;100.00;100683.34;684542;28;1101;-46
2022/06/27 00:51:50;;;;;;;6.00;4.67;;;;;;;15.47;100.00;100678.06;685002;28;1473;-46
2022/06/27 00:52:12;;;;;;;6.03;4.87;;;;;;;15.47;100.00;100679.84;685088;28;1492;-46
2022/06/27 00:52:33;;;;;;;6.43;5.30;;;;;;;15.47;100.00;100678.06;686539;28;4392;-46
2022/06/27 00:52:54;;;;;;;6.13;5.47;;;;;;;15.47;100.00;100682.50;687436;28;1703;-47
2022/06/27 00:53:15;;;;;;;6.40;5.47;;;;;;;15.47;100.00;100680.72;684541;28;1617;-47
2022/06/27 00:53:35;;;;;;;7.25;5.70;;;;;;;15.47;100.00;100680.72;684911;28;1548;-46
2022/06/27 00:53:56;;;;;;;6.95;5.38;;;;;;;15.52;100.00;100683.25;687340;28;1210;-46
2022/06/27 00:54:16;;;;;;;5.80;4.73;;;;;;;15.52;100.00;100682.38;686455;28;1139;-47
2022/06/27 00:54:39;;;;;;;5.88;4.88;;;;;;;15.51;100.00;100681.50;687725;28;1275;-46
2022/06/27 00:54:59;;;;;;;7.07;5.10;;;;;;;15.50;100.00;100677.13;685047;28;1377;-46
2022/06/27 00:55:20;;;;;;;5.85;4.80;;;;;;;15.48;100.00;100684.22;688151;28;1172;-46
2022/06/27 00:55:41;;;;;;;6.00;5.00;;;;;;;15.48;100.00;100684.22;689409;28;4269;-46
2022/06/27 00:56:02;;;;;;;6.77;5.13;;;;;;;15.48;100.00;100682.44;689888;28;1325;-46
2022/06/27 00:56:23;;;;;;;6.47;5.07;;;;;;;15.50;100.00;100683.25;687687;28;1168;-47
2022/06/27 00:56:43;;;;;;;6.63;5.00;;;;;;;15.50;100.00;100691.16;688271;28;1476;-45
2022/06/27 00:57:05;;;;;;;6.57;4.93;;;;;;;15.49;100.00;100676.28;689825;28;1365;-46
2022/06/27 00:57:28;;;;;;;7.20;4.90;;;;;;;15.49;100.00;100684.19;688702;28;1601;-46
2022/06/27 00:57:48;;;;;;;7.68;5.18;;;;;;;15.48;100.00;100681.59;687114;28;1262;-46
2022/06/27 00:58:09;;;;;;;6.03;4.97;;;;;;;15.48;100.00;100681.59;688127;28;1875;-47
2022/06/27 00:58:29;;;;;;;6.03;5.18;;;;;;;15.48;100.00;100682.44;689447;28;4483;-46
2022/06/27 00:58:49;;;;;;;5.37;4.80;;;;;;;15.48;100.00;100681.59;689161;28;1095;-46
2022/06/27 00:59:10;;;;;;;6.37;4.77;;;;;;;15.47;100.00;100679.84;687321;28;1309;-46
2022/06/27 00:59:30;;;;;;;6.65;5.47;;;;;;;15.46;100.00;100680.75;684198;28;1227;-46
2022/06/27 00:59:50;;;;;;;6.40;5.33;;;;;;;15.45;100.00;100689.53;684339;28;1329;-48
2022/06/27 01:00:12;;;;;;;6.10;4.82;;;;;;;15.46;100.00;100688.66;687457;28;1454;-46
2022/06/27 01:00:32;;;;;;;7.57;5.20;;;;;;;15.45;100.00;100682.53;684210;28;1389;-48
2022/06/27 01:00:52;;;;;;;9.10;5.67;;;;;;;15.46;100.00;100678.97;684561;28;1337;-48
2022/06/27 01:01:13;;;;;;;7.75;5.68;;;;;;;15.47;100.00;100685.13;687365;28;1128;-46
2022/06/27 01:01:33;;;;;;;6.47;4.63;;;;;;;15.46;100.00;100684.25;689261;28;4248;-46
2022/06/27 01:01:54;;;;;;;6.40;4.70;;;;;;;15.47;100.00;100690.41;686934;28;1213;-46
2022/06/27 01:02:15;;;;;;;6.23;5.00;;;;;;;15.45;100.00;100692.19;685439;28;1478;-47
2022/06/27 01:02:36;;;;;;;6.03;4.83;;;;;;;15.45;100.00;100689.53;687743;28;1279;-46
2022/06/27 01:02:56;;;;;;;6.05;5.00;;;;;;;15.45;100.00;100687.81;684637;28;1302;-45
2022/06/27 01:03:17;;;;;;;6.23;4.80;;;;;;;15.45;100.00;100693.06;684745;28;1184;-46
2022/06/27 01:03:37;;;;;;;6.20;5.10;;;;;;;15.46;100.00;100686.03;682984;28;1439;-45
2022/06/27 01:04:00;;;;;;;6.50;5.13;;;;;;;15.46;100.00;100689.50;684505;28;1538;-46
2022/06/27 01:04:22;;;;;;;6.22;5.00;;;;;;;15.45;100.00;100687.81;687295;28;1466;-46
2022/06/27 01:04:42;;;;;;;6.50;4.90;;;;;;;15.46;100.00;100686.03;686362;28;4351;-47
2022/06/27 01:05:04;;;;;;;5.88;5.07;;;;;;;15.46;100.00;100694.78;686615;28;1464;-46
2022/06/27 01:05:25;;;;;;;7.45;5.45;;;;;;;15.46;100.00;100688.66;685513;28;2020;-47
2022/06/27 01:05:51;;;;;;;6.25;5.40;;;;;;;15.45;100.00;100689.53;681683;28;1334;-48
2022/06/27 01:06:12;;;;;;;5.95;5.05;;;;;;;15.45;100.00;100689.53;681534;28;1113;-46
2022/06/27 01:06:32;;;;;;;6.37;5.00;;;;;;;15.45;100.00;100690.44;680363;28;1262;-47
2022/06/27 01:06:53;;;;;;;6.38;5.20;;;;;;;15.46;100.00;100688.66;682914;28;1243;-46
2022/06/27 01:07:13;;;;;;;5.88;5.10;;;;;;;15.46;100.00;100686.03;682495;28;1084;-47
2022/06/27 01:07:34;;;;;;;6.07;4.77;;;;;;;15.45;100.00;100690.44;682338;28;4495;-47
2022/06/27 01:07:54;;;;;;;6.82;4.80;;;;;;;15.46;100.00;100688.66;684407;28;1267;-46
2022/06/27 01:08:15;;;;;;;6.70;5.00;;;;;;;15.42;100.00;100685.22;684421;28;1231;-47
2022/06/27 01:08:36;;;;;;;6.22;5.00;;;;;;;15.39;100.00;100687.94;687104;28;1418;-45
2022/06/27 01:08:57;;;;;;;6.07;4.97;;;;;;;15.38;100.00;100690.59;687761;28;1345;-47
2022/06/27 01:09:19;;;;;;;6.30;4.93;;;;;;;15.34;100.00;100681.94;687032;28;1104;-46
2022/06/27 01:09:41;;;;;;;7.78;5.05;;;;;;;15.33;100.00;100686.31;689792;28;1372;-46
2022/06/27 01:10:02;;;;;;;7.55;5.03;;;;;;;15.35;100.00;100688.06;689997;28;1543;-46
2022/06/27 01:10:22;;;;;;;6.20;5.07;;;;;;;15.33;100.00;100681.03;690322;28;1161;-46
2022/06/27 01:10:42;;;;;;;6.27;4.90;;;;;;;15.36;100.00;100685.38;691634;28;5036;-46
2022/06/27 01:11:03;;;;;;;6.70;4.80;;;;;;;15.37;100.00;100679.22;690104;28;1305;-46
2022/06/27 01:11:23;;;;;;;5.90;4.90;;;;;;;15.39;100.00;100681.81;687384;28;1333;-47
2022/06/27 01:11:43;;;;;;;6.00;5.00;;;;;;;15.38;100.00;100680.97;687214;28;1420;-47
2022/06/27 01:12:05;;;;;;;7.20;5.10;;;;;;;15.36;100.00;100684.53;687188;28;1238;-46
2022/06/27 01:12:25;;;;;;;7.03;5.10;;;;;;;15.29;100.00;100679.38;683723;28;1489;-47
2022/06/27 01:12:48;;;;;;;6.38;4.93;;;;;;;15.27;100.00;100678.56;685315;28;1500;-47
2022/06/27 01:13:08;;;;;;;6.35;5.13;;;;;;;15.26;100.00;100681.25;687267;28;2156;-47
2022/06/27 01:13:30;;;;;;;6.00;5.18;;;;;;;15.26;100.00;100670.72;687728;28;1429;-45
2022/06/27 01:13:51;;;;;;;6.15;5.15;;;;;;;15.26;100.00;100676.84;681841;28;7452;-46
2022/06/27 01:14:12;;;;;;;6.73;5.20;;;;;;;15.27;100.00;100675.94;681759;28;1501;-46
2022/06/27 01:14:33;;;;;;;6.72;4.85;;;;;;;15.27;100.00;100673.31;684730;28;1256;-46
2022/06/27 01:14:54;;;;;;;6.22;4.55;;;;;;;15.30;100.00;100678.50;684203;28;1296;-46
2022/06/27 01:15:14;;;;;;;5.63;4.43;;;;;;;15.31;100.00;100674.09;684563;28;1255;-45
2022/06/27 01:15:35;;;;;;;5.90;4.80;;;;;;;15.32;100.00;100674.03;685974;28;1503;-47
2022/06/27 01:15:57;;;;;;;6.20;4.93;;;;;;;15.32;100.00;100675.81;690890;28;1265;-46
2022/06/27 01:16:18;;;;;;;6.53;5.07;;;;;;;15.35;100.00;100672.25;686519;28;3278;-46
2022/06/27 01:16:39;;;;;;;5.97;5.00;;;;;;;15.35;100.00;100674.88;689913;28;4423;-49
2022/06/27 01:17:00;;;;;;;6.35;5.28;;;;;;;15.36;100.00;100681.91;691450;28;1365;-46
2022/06/27 01:17:21;;;;;;;6.50;5.00;;;;;;;15.37;100.00;100673.06;687447;28;1378;-47
2022/06/27 01:17:41;;;;;;;6.55;5.25;;;;;;;15.37;100.00;100670.44;687751;28;1484;-46
2022/06/27 01:18:03;;;;;;;6.70;5.20;;;;;;;15.38;100.00;100669.53;688115;28;1433;-47
2022/06/27 01:18:24;;;;;;;6.55;4.93;;;;;;;15.39;100.00;100669.50;687499;28;1342;-46
2022/06/27 01:18:44;;;;;;;6.38;4.88;;;;;;;15.39;100.00;100666.00;684945;28;1581;-47
2022/06/27 01:19:10;;;;;;;6.70;5.10;;;;;;;15.39;100.00;100658.97;684790;28;1567;-46
2022/06/27 01:19:31;;;;;;;6.28;4.82;;;;;;;15.40;100.00;100665.09;684481;28;4434;-46
2022/06/27 01:19:52;;;;;;;5.43;4.70;;;;;;;15.41;100.00;100662.44;685769;28;1570;-47
2022/06/27 01:20:12;;;;;;;6.00;5.05;;;;;;;15.42;100.00;100663.28;687400;28;1239;-46
2022/06/27 01:20:33;;;;;;;6.03;5.28;;;;;;;15.43;100.00;100667.66;687261;28;1356;-46
2022/06/27 01:20:53;;;;;;;6.37;5.60;;;;;;;15.44;100.00;100666.78;687641;28;1282;-46
2022/06/27 01:21:20;;;;;;;6.07;5.13;;;;;;;15.44;100.00;100656.22;685156;28;1416;-45
2022/06/27 01:21:50;;;;;;;7.43;5.13;;;;;;;15.44;100.00;100664.13;685342;28;2260;-46
2022/06/27 01:22:11;;;;;;;7.20;5.20;;;;;;;15.45;100.00;100665.84;683964;28;1545;-46
2022/06/27 01:22:31;;;;;;;6.13;5.20;;;;;;;15.45;100.00;100668.47;684664;28;4544;-46
2022/06/27 01:22:53;;;;;;;6.45;5.05;;;;;;;15.44;100.00;100666.78;681774;28;1949;-46
2022/06/27 01:23:15;;;;;;;6.72;5.38;;;;;;;15.45;100.00;100677.25;684553;28;1522;-48
2022/06/27 01:23:36;;;;;;;6.70;5.33;;;;;;;15.45;100.00;100681.66;684033;28;1183;-47
2022/06/27 01:23:58;;;;;;;6.10;5.50;;;;;;;15.45;100.00;100681.66;681102;28;1412;-47
2022/06/27 01:24:22;;;;;;;7.30;5.35;;;;;;;15.44;100.00;100685.22;681996;28;1281;-48
2022/06/27 01:24:43;;;;;;;6.68;5.15;;;;;;;15.45;100.00;100682.53;686017;28;1306;-47
2022/06/27 01:25:05;;;;;;;6.82;5.25;;;;;;;15.45;100.00;100684.28;684450;28;1290;-46
2022/06/27 01:25:26;;;;;;;7.18;5.10;;;;;;;15.45;100.00;100686.91;685344;28;1910;-47
2022/06/27 01:25:47;;;;;;;6.70;5.40;;;;;;;15.44;100.00;100685.22;685336;28;4362;-46
2022/06/27 01:26:09;;;;;;;7.18;5.43;;;;;;;15.42;100.00;100687.84;688418;28;1357;-49
2022/06/27 01:26:29;;;;;;;7.28;5.55;;;;;;;15.42;100.00;100687.84;682231;28;1395;-46
2022/06/27 01:26:50;;;;;;;7.33;5.90;;;;;;;15.42;100.00;100687.00;679643;28;1406;-46
2022/06/27 01:27:11;;;;;;;6.80;5.43;;;;;;;15.41;100.00;100677.34;679513;28;1512;-47
2022/06/27 01:27:32;;;;;;;7.30;5.57;;;;;;;15.40;100.00;100673.00;682041;28;1377;-48
2022/06/27 01:27:53;;;;;;;7.00;5.63;;;;;;;15.40;100.00;100678.28;684878;28;1418;-47
2022/06/27 01:28:15;;;;;;;7.68;5.60;;;;;;;15.39;100.00;100684.44;685149;28;1666;-46
2022/06/27 01:28:36;;;;;;;6.82;5.43;;;;;;;15.39;100.00;100676.53;684983;28;4392;-47
2022/06/27 01:28:56;;;;;;;6.88;5.38;;;;;;;15.39;100.00;100679.19;684838;28;1313;-47
2022/06/27 01:29:19;;;;;;;6.72;5.70;;;;;;;15.40;100.00;100675.66;687965;28;1397;-48
2022/06/27 01:29:40;;;;;;;6.75;5.78;;;;;;;15.38;100.00;100675.69;684212;28;1725;-47
2022/06/27 01:30:03;;;;;;;7.03;5.35;;;;;;;15.37;100.00;100668.69;684277;28;1246;-46
2022/06/27 01:30:24;;;;;;;6.18;4.90;;;;;;;15.39;100.00;100676.53;685287;28;1404;-47
2022/06/27 01:30:47;;;;;;;7.72;5.43;;;;;;;15.40;100.00;100678.28;685987;28;1260;-46
2022/06/27 01:31:11;;;;;;;7.03;5.70;;;;;;;15.40;100.00;100673.00;685671;28;1501;-47
2022/06/27 01:31:37;;;;;;;6.60;5.50;;;;;;;15.39;100.00;100663.38;681084;28;4399;-47
2022/06/27 01:31:58;;;;;;;6.22;5.18;;;;;;;15.40;100.00;100670.38;681997;28;1318;-47
2022/06/27 01:32:24;;;;;;;7.00;5.43;;;;;;;15.39;100.00;100672.13;684572;28;1410;-48
2022/06/27 01:32:44;;;;;;;6.38;5.35;;;;;;;15.40;100.00;100667.75;684837;28;1451;-46
2022/06/27 01:33:05;;;;;;;6.77;5.23;;;;;;;15.41;100.00;100672.09;686502;28;1337;-47
2022/06/27 01:33:29;;;;;;;8.20;5.78;;;;;;;15.40;100.00;100675.66;684874;28;1210;-47
2022/06/27 01:33:49;;;;;;;6.35;5.35;;;;;;;15.41;100.00;100680.00;684887;28;1544;-46
2022/06/27 01:34:11;;;;;;;6.20;5.50;;;;;;;15.40;100.00;100673.00;685709;28;1531;-48
2022/06/27 01:34:34;;;;;;;7.00;5.28;;;;;;;15.41;100.00;100674.72;682930;28;4562;-46
2022/06/27 01:34:55;;;;;;;6.25;5.20;;;;;;;15.41;100.00;100678.25;684573;28;1342;-46
2022/06/27 01:35:16;;;;;;;6.15;5.55;;;;;;;15.42;100.00;100679.09;685834;28;2030;-47
2022/06/27 01:35:38;;;;;;;5.82;5.22;;;;;;;15.43;100.00;100680.84;685467;28;1331;-45
2022/06/27 01:36:41;;;;;;;6.63;5.57;;;;;;;15.46;100.00;100686.03;686637;28;1513;-46
2022/06/27 01:37:04;;;;;;;7.13;5.43;;;;;;;15.47;100.00;100685.13;688170;28;1385;-46
2022/06/27 01:37:29;;;;;;;6.43;5.18;;;;;;;15.45;100.00;100682.53;687621;28;1512;-46
2022/06/27 01:37:50;;;;;;;6.97;5.38;;;;;;;15.47;100.00;100685.13;686176;28;4677;-47
2022/06/27 01:38:10;;;;;;;7.00;5.70;;;;;;;15.46;100.00;100684.25;684579;28;1336;-46
2022/06/27 01:38:31;;;;;;;7.55;5.65;;;;;;;15.45;100.00;100682.53;685222;28;1564;-48
2022/06/27 01:38:52;;;;;;;6.67;5.80;;;;;;;15.44;100.00;100682.56;684947;28;1335;-46
2022/06/27 01:39:20;;;;;;;6.75;5.50;;;;;;;15.45;100.00;100685.16;685086;28;1325;-47
2022/06/27 01:39:41;;;;;;;6.90;5.40;;;;;;;15.45;100.00;100684.28;685490;28;1333;-46
2022/06/27 01:40:02;;;;;;;6.13;5.20;;;;;;;15.45;100.00;100681.66;687546;28;1413;-46